sensor_id;sensor_type;location;lat;lon;timestamp;P1;durP1;ratioP1;P2;durP2;ratioP2
26620;SDS011;14253;44.840;10.444;2022-10-16T00:01:51;37.88;;;25.55;;
26620;SDS011;14253;44.840;10.444;2022-10-16T00:04:17;42.72;;;26.40;;
26620;SDS011;14253;44.840;10.444;2022-10-16T00:06:43;42.63;;;28.30;;
26620;SDS011;14253;44.840;10.444;2022-10-16T00:09:09;41.88;;;26.45;;
26620;SDS011;14253;44.840;10.444;2022-10-16T00:11:37;41.85;;;27.42;;
26620;SDS011;14253;44.840;10.444;2022-10-16T00:14:06;37.22;;;25.60;;
26620;SDS011;14253;44.840;10.444;2022-10-16T00:16:35;37.95;;;25.90;;
26620;SDS011;14253;44.840;10.444;2022-10-16T00:19:01;41.38;;;25.88;;
26620;SDS011;14253;44.840;10.444;2022-10-16T00:21:28;38.08;;;26.33;;
26620;SDS011;14253;44.840;10.444;2022-10-16T00:24:00;35.35;;;25.30;;
26620;SDS011;14253;44.840;10.444;2022-10-16T00:26:30;40.75;;;25.17;;
26620;SDS011;14253;44.840;10.444;2022-10-16T00:28:58;38.88;;;26.20;;
26620;SDS011;14253;44.840;10.444;2022-10-16T00:31:24;36.85;;;24.73;;
26620;SDS011;14253;44.840;10.444;2022-10-16T00:33:50;36.85;;;24.92;;
26620;SDS011;14253;44.840;10.444;2022-10-16T00:36:18;43.03;;;26.42;;
26620;SDS011;14253;44.840;10.444;2022-10-16T00:38:47;35.38;;;24.17;;
26620;SDS011;14253;44.840;10.444;2022-10-16T00:41:18;39.65;;;26.45;;
26620;SDS011;14253;44.840;10.444;2022-10-16T00:43:53;38.20;;;26.27;;
26620;SDS011;14253;44.840;10.444;2022-10-16T00:46:21;45.33;;;27.58;;
26620;SDS011;14253;44.840;10.444;2022-10-16T00:49:09;38.55;;;24.80;;
26620;SDS011;14253;44.840;10.444;2022-10-16T00:51:41;42.95;;;27.30;;
26620;SDS011;14253;44.840;10.444;2022-10-16T00:54:13;43.67;;;27.13;;
26620;SDS011;14253;44.840;10.444;2022-10-16T00:56:45;44.28;;;27.50;;
26620;SDS011;14253;44.840;10.444;2022-10-16T00:59:16;42.05;;;27.67;;
26620;SDS011;14253;44.840;10.444;2022-10-16T01:01:54;33.90;;;24.08;;
26620;SDS011;14253;44.840;10.444;2022-10-16T01:04:21;45.53;;;27.08;;
26620;SDS011;14253;44.840;10.444;2022-10-16T01:20:32;46.47;;;28.50;;
26620;SDS011;14253;44.840;10.444;2022-10-16T01:29:15;40.33;;;26.20;;
26620;SDS011;14253;44.840;10.444;2022-10-16T01:31:33;41.63;;;28.23;;
26620;SDS011;14253;44.840;10.444;2022-10-16T01:36:51;45.35;;;28.70;;
26620;SDS011;14253;44.840;10.444;2022-10-16T01:39:22;46.22;;;28.10;;
26620;SDS011;14253;44.840;10.444;2022-10-16T01:41:54;42.90;;;28.08;;
26620;SDS011;14253;44.840;10.444;2022-10-16T01:44:28;43.40;;;28.33;;
26620;SDS011;14253;44.840;10.444;2022-10-16T01:46:56;40.13;;;26.98;;
26620;SDS011;14253;44.840;10.444;2022-10-16T01:49:24;40.13;;;26.33;;
26620;SDS011;14253;44.840;10.444;2022-10-16T01:51:54;41.72;;;27.67;;
26620;SDS011;14253;44.840;10.444;2022-10-16T01:54:23;44.40;;;26.90;;
26620;SDS011;14253;44.840;10.444;2022-10-16T01:56:52;41.75;;;26.10;;
26620;SDS011;14253;44.840;10.444;2022-10-16T01:59:20;43.10;;;26.40;;
26620;SDS011;14253;44.840;10.444;2022-10-16T02:01:49;45.28;;;28.80;;
26620;SDS011;14253;44.840;10.444;2022-10-16T02:04:42;49.03;;;30.30;;
26620;SDS011;14253;44.840;10.444;2022-10-16T02:07:09;51.47;;;31.48;;
26620;SDS011;14253;44.840;10.444;2022-10-16T02:09:36;45.10;;;29.95;;
26620;SDS011;14253;44.840;10.444;2022-10-16T02:12:08;56.08;;;33.88;;
26620;SDS011;14253;44.840;10.444;2022-10-16T02:14:47;51.00;;;32.00;;
26620;SDS011;14253;44.840;10.444;2022-10-16T02:17:15;50.97;;;31.77;;
26620;SDS011;14253;44.840;10.444;2022-10-16T02:19:42;60.42;;;36.20;;
26620;SDS011;14253;44.840;10.444;2022-10-16T02:22:19;56.80;;;36.75;;
26620;SDS011;14253;44.840;10.444;2022-10-16T02:25:06;55.38;;;34.22;;
26620;SDS011;14253;44.840;10.444;2022-10-16T02:32:34;53.97;;;33.20;;
26620;SDS011;14253;44.840;10.444;2022-10-16T02:35:03;52.70;;;33.30;;
26620;SDS011;14253;44.840;10.444;2022-10-16T02:37:30;54.80;;;33.63;;
26620;SDS011;14253;44.840;10.444;2022-10-16T02:39:57;49.55;;;32.55;;
26620;SDS011;14253;44.840;10.444;2022-10-16T02:42:27;53.63;;;33.83;;
26620;SDS011;14253;44.840;10.444;2022-10-16T02:45:01;57.72;;;35.42;;
26620;SDS011;14253;44.840;10.444;2022-10-16T02:47:28;56.13;;;33.47;;
26620;SDS011;14253;44.840;10.444;2022-10-16T02:49:54;54.35;;;36.15;;
26620;SDS011;14253;44.840;10.444;2022-10-16T02:52:20;61.63;;;37.15;;
26620;SDS011;14253;44.840;10.444;2022-10-16T02:54:46;65.10;;;37.70;;
26620;SDS011;14253;44.840;10.444;2022-10-16T02:57:12;62.90;;;38.65;;
26620;SDS011;14253;44.840;10.444;2022-10-16T02:59:38;59.95;;;36.55;;
26620;SDS011;14253;44.840;10.444;2022-10-16T03:02:04;60.88;;;36.60;;
26620;SDS011;14253;44.840;10.444;2022-10-16T03:04:30;55.58;;;35.50;;
26620;SDS011;14253;44.840;10.444;2022-10-16T03:06:56;57.97;;;36.40;;
26620;SDS011;14253;44.840;10.444;2022-10-16T03:09:22;61.90;;;35.45;;
26620;SDS011;14253;44.840;10.444;2022-10-16T03:11:48;62.78;;;36.05;;
26620;SDS011;14253;44.840;10.444;2022-10-16T03:14:14;57.50;;;36.97;;
26620;SDS011;14253;44.840;10.444;2022-10-16T03:16:42;64.47;;;38.83;;
26620;SDS011;14253;44.840;10.444;2022-10-16T03:19:07;61.22;;;37.22;;
26620;SDS011;14253;44.840;10.444;2022-10-16T03:21:33;61.88;;;37.10;;
26620;SDS011;14253;44.840;10.444;2022-10-16T03:23:59;63.38;;;38.65;;
26620;SDS011;14253;44.840;10.444;2022-10-16T03:26:25;61.47;;;37.17;;
26620;SDS011;14253;44.840;10.444;2022-10-16T03:28:51;61.35;;;36.00;;
26620;SDS011;14253;44.840;10.444;2022-10-16T03:31:17;59.53;;;36.25;;
26620;SDS011;14253;44.840;10.444;2022-10-16T03:33:43;55.70;;;36.75;;
26620;SDS011;14253;44.840;10.444;2022-10-16T03:36:09;56.92;;;36.53;;
26620;SDS011;14253;44.840;10.444;2022-10-16T03:38:35;54.47;;;34.97;;
26620;SDS011;14253;44.840;10.444;2022-10-16T03:41:01;54.25;;;36.00;;
26620;SDS011;14253;44.840;10.444;2022-10-16T03:43:27;56.15;;;37.55;;
26620;SDS011;14253;44.840;10.444;2022-10-16T03:45:53;58.63;;;36.83;;
26620;SDS011;14253;44.840;10.444;2022-10-16T03:48:19;61.28;;;37.78;;
26620;SDS011;14253;44.840;10.444;2022-10-16T03:50:45;54.17;;;34.15;;
26620;SDS011;14253;44.840;10.444;2022-10-16T03:53:13;57.75;;;36.63;;
26620;SDS011;14253;44.840;10.444;2022-10-16T03:55:41;55.33;;;35.67;;
26620;SDS011;14253;44.840;10.444;2022-10-16T03:58:07;54.97;;;34.42;;
26620;SDS011;14253;44.840;10.444;2022-10-16T04:00:33;56.95;;;36.40;;
26620;SDS011;14253;44.840;10.444;2022-10-16T04:03:00;53.30;;;33.63;;
26620;SDS011;14253;44.840;10.444;2022-10-16T04:05:26;55.33;;;35.55;;
26620;SDS011;14253;44.840;10.444;2022-10-16T04:07:52;62.33;;;36.75;;
26620;SDS011;14253;44.840;10.444;2022-10-16T04:10:18;63.88;;;36.08;;
26620;SDS011;14253;44.840;10.444;2022-10-16T04:12:44;64.50;;;37.25;;
26620;SDS011;14253;44.840;10.444;2022-10-16T04:15:10;62.65;;;38.47;;
26620;SDS011;14253;44.840;10.444;2022-10-16T04:17:36;55.88;;;36.75;;
26620;SDS011;14253;44.840;10.444;2022-10-16T04:20:02;56.92;;;35.05;;
26620;SDS011;14253;44.840;10.444;2022-10-16T04:22:28;53.10;;;33.65;;
26620;SDS011;14253;44.840;10.444;2022-10-16T04:24:54;56.30;;;34.35;;
26620;SDS011;14253;44.840;10.444;2022-10-16T04:27:20;55.28;;;34.55;;
26620;SDS011;14253;44.840;10.444;2022-10-16T04:29:46;54.90;;;32.85;;
26620;SDS011;14253;44.840;10.444;2022-10-16T04:32:12;54.35;;;33.92;;
26620;SDS011;14253;44.840;10.444;2022-10-16T04:34:39;53.17;;;34.40;;
26620;SDS011;14253;44.840;10.444;2022-10-16T04:37:05;50.28;;;33.83;;
26620;SDS011;14253;44.840;10.444;2022-10-16T04:39:31;51.45;;;31.48;;
26620;SDS011;14253;44.840;10.444;2022-10-16T04:41:57;53.25;;;32.28;;
26620;SDS011;14253;44.840;10.444;2022-10-16T04:44:23;47.20;;;30.73;;
26620;SDS011;14253;44.840;10.444;2022-10-16T04:46:52;46.83;;;30.08;;
26620;SDS011;14253;44.840;10.444;2022-10-16T04:49:18;48.92;;;29.58;;
26620;SDS011;14253;44.840;10.444;2022-10-16T04:51:44;42.28;;;26.83;;
26620;SDS011;14253;44.840;10.444;2022-10-16T04:54:10;44.00;;;27.85;;
26620;SDS011;14253;44.840;10.444;2022-10-16T04:56:36;43.10;;;27.25;;
26620;SDS011;14253;44.840;10.444;2022-10-16T04:59:08;43.00;;;27.27;;
26620;SDS011;14253;44.840;10.444;2022-10-16T05:01:34;40.85;;;26.98;;
26620;SDS011;14253;44.840;10.444;2022-10-16T05:04:00;42.50;;;27.67;;
26620;SDS011;14253;44.840;10.444;2022-10-16T05:06:26;38.80;;;26.48;;
26620;SDS011;14253;44.840;10.444;2022-10-16T05:08:52;41.30;;;26.85;;
26620;SDS011;14253;44.840;10.444;2022-10-16T05:11:18;40.63;;;27.00;;
26620;SDS011;14253;44.840;10.444;2022-10-16T05:13:45;35.42;;;24.70;;
26620;SDS011;14253;44.840;10.444;2022-10-16T05:16:10;42.33;;;26.02;;
26620;SDS011;14253;44.840;10.444;2022-10-16T05:18:36;40.15;;;25.92;;
26620;SDS011;14253;44.840;10.444;2022-10-16T05:21:02;38.58;;;25.65;;
26620;SDS011;14253;44.840;10.444;2022-10-16T05:23:28;47.95;;;27.30;;
26620;SDS011;14253;44.840;10.444;2022-10-16T05:25:55;38.72;;;25.98;;
26620;SDS011;14253;44.840;10.444;2022-10-16T05:28:26;44.42;;;25.90;;
26620;SDS011;14253;44.840;10.444;2022-10-16T05:30:54;41.70;;;25.67;;
26620;SDS011;14253;44.840;10.444;2022-10-16T05:33:20;37.90;;;25.50;;
26620;SDS011;14253;44.840;10.444;2022-10-16T05:35:47;37.60;;;24.08;;
26620;SDS011;14253;44.840;10.444;2022-10-16T05:38:13;69.60;;;47.53;;
26620;SDS011;14253;44.840;10.444;2022-10-16T05:40:39;43.55;;;26.88;;
26620;SDS011;14253;44.840;10.444;2022-10-16T05:43:05;37.67;;;26.27;;
26620;SDS011;14253;44.840;10.444;2022-10-16T05:45:31;41.88;;;27.60;;
26620;SDS011;14253;44.840;10.444;2022-10-16T05:47:56;37.15;;;26.15;;
26620;SDS011;14253;44.840;10.444;2022-10-16T05:50:22;34.33;;;23.13;;
26620;SDS011;14253;44.840;10.444;2022-10-16T05:52:48;35.47;;;22.88;;
26620;SDS011;14253;44.840;10.444;2022-10-16T05:55:14;41.17;;;27.60;;
26620;SDS011;14253;44.840;10.444;2022-10-16T05:57:40;44.53;;;26.02;;
26620;SDS011;14253;44.840;10.444;2022-10-16T06:00:07;40.30;;;23.88;;
26620;SDS011;14253;44.840;10.444;2022-10-16T06:02:40;41.67;;;25.25;;
26620;SDS011;14253;44.840;10.444;2022-10-16T06:05:06;37.72;;;23.20;;
26620;SDS011;14253;44.840;10.444;2022-10-16T06:07:35;36.80;;;23.23;;
26620;SDS011;14253;44.840;10.444;2022-10-16T06:10:02;37.38;;;22.85;;
26620;SDS011;14253;44.840;10.444;2022-10-16T06:12:29;35.53;;;22.90;;
26620;SDS011;14253;44.840;10.444;2022-10-16T06:14:55;33.08;;;22.70;;
26620;SDS011;14253;44.840;10.444;2022-10-16T06:17:21;35.35;;;22.20;;
26620;SDS011;14253;44.840;10.444;2022-10-16T06:19:47;33.72;;;21.50;;
26620;SDS011;14253;44.840;10.444;2022-10-16T06:22:13;29.27;;;21.52;;
26620;SDS011;14253;44.840;10.444;2022-10-16T06:24:39;33.53;;;21.17;;
26620;SDS011;14253;44.840;10.444;2022-10-16T06:27:05;30.02;;;19.08;;
26620;SDS011;14253;44.840;10.444;2022-10-16T06:29:31;30.38;;;18.75;;
26620;SDS011;14253;44.840;10.444;2022-10-16T06:31:57;27.70;;;18.25;;
26620;SDS011;14253;44.840;10.444;2022-10-16T06:34:22;26.88;;;19.38;;
26620;SDS011;14253;44.840;10.444;2022-10-16T06:36:48;27.08;;;18.75;;
26620;SDS011;14253;44.840;10.444;2022-10-16T06:39:14;26.48;;;17.67;;
26620;SDS011;14253;44.840;10.444;2022-10-16T06:41:40;28.98;;;18.23;;
26620;SDS011;14253;44.840;10.444;2022-10-16T06:44:14;30.88;;;17.73;;
26620;SDS011;14253;44.840;10.444;2022-10-16T06:46:40;30.02;;;16.85;;
26620;SDS011;14253;44.840;10.444;2022-10-16T06:49:06;18.10;;;13.95;;
26620;SDS011;14253;44.840;10.444;2022-10-16T06:51:32;18.00;;;13.10;;
26620;SDS011;14253;44.840;10.444;2022-10-16T06:54:00;21.58;;;12.05;;
26620;SDS011;14253;44.840;10.444;2022-10-16T06:56:27;19.55;;;12.02;;
26620;SDS011;14253;44.840;10.444;2022-10-16T06:58:55;20.75;;;12.30;;
26620;SDS011;14253;44.840;10.444;2022-10-16T07:01:22;17.95;;;11.00;;
26620;SDS011;14253;44.840;10.444;2022-10-16T07:03:49;16.33;;;11.68;;
26620;SDS011;14253;44.840;10.444;2022-10-16T07:06:17;21.23;;;11.35;;
26620;SDS011;14253;44.840;10.444;2022-10-16T07:08:46;15.80;;;10.95;;
26620;SDS011;14253;44.840;10.444;2022-10-16T07:11:15;12.50;;;8.45;;
26620;SDS011;14253;44.840;10.444;2022-10-16T07:13:43;12.75;;;8.77;;
26620;SDS011;14253;44.840;10.444;2022-10-16T07:16:17;13.88;;;7.75;;
26620;SDS011;14253;44.840;10.444;2022-10-16T07:18:44;10.93;;;7.13;;
26620;SDS011;14253;44.840;10.444;2022-10-16T07:21:13;10.95;;;7.60;;
26620;SDS011;14253;44.840;10.444;2022-10-16T07:23:40;9.07;;;6.65;;
26620;SDS011;14253;44.840;10.444;2022-10-16T07:26:08;12.57;;;7.50;;
26620;SDS011;14253;44.840;10.444;2022-10-16T07:28:35;9.05;;;6.93;;
26620;SDS011;14253;44.840;10.444;2022-10-16T07:31:02;11.30;;;7.00;;
26620;SDS011;14253;44.840;10.444;2022-10-16T07:33:30;11.50;;;8.13;;
26620;SDS011;14253;44.840;10.444;2022-10-16T07:35:56;12.82;;;8.02;;
26620;SDS011;14253;44.840;10.444;2022-10-16T07:38:23;9.88;;;8.07;;
26620;SDS011;14253;44.840;10.444;2022-10-16T07:40:55;10.25;;;7.15;;
26620;SDS011;14253;44.840;10.444;2022-10-16T07:43:25;12.88;;;7.97;;
26620;SDS011;14253;44.840;10.444;2022-10-16T07:45:51;12.35;;;7.90;;
26620;SDS011;14253;44.840;10.444;2022-10-16T07:48:18;13.38;;;9.07;;
26620;SDS011;14253;44.840;10.444;2022-10-16T07:50:45;12.35;;;8.38;;
26620;SDS011;14253;44.840;10.444;2022-10-16T07:53:11;13.40;;;9.68;;
26620;SDS011;14253;44.840;10.444;2022-10-16T07:55:38;12.85;;;10.13;;
26620;SDS011;14253;44.840;10.444;2022-10-16T07:58:04;15.85;;;9.57;;
26620;SDS011;14253;44.840;10.444;2022-10-16T08:00:30;14.75;;;8.85;;
26620;SDS011;14253;44.840;10.444;2022-10-16T08:02:59;16.58;;;10.27;;
26620;SDS011;14253;44.840;10.444;2022-10-16T08:05:28;12.95;;;10.25;;
26620;SDS011;14253;44.840;10.444;2022-10-16T08:07:56;13.95;;;8.90;;
26620;SDS011;14253;44.840;10.444;2022-10-16T08:10:24;13.60;;;8.35;;
26620;SDS011;14253;44.840;10.444;2022-10-16T08:12:51;9.95;;;7.97;;
26620;SDS011;14253;44.840;10.444;2022-10-16T08:15:20;13.05;;;8.93;;
26620;SDS011;14253;44.840;10.444;2022-10-16T08:17:56;13.00;;;8.38;;
26620;SDS011;14253;44.840;10.444;2022-10-16T08:20:24;13.75;;;8.68;;
26620;SDS011;14253;44.840;10.444;2022-10-16T08:22:50;16.15;;;8.88;;
26620;SDS011;14253;44.840;10.444;2022-10-16T08:25:16;12.80;;;7.97;;
26620;SDS011;14253;44.840;10.444;2022-10-16T08:27:42;14.75;;;7.63;;
26620;SDS011;14253;44.840;10.444;2022-10-16T08:30:10;13.55;;;7.88;;
26620;SDS011;14253;44.840;10.444;2022-10-16T08:32:36;10.10;;;6.97;;
26620;SDS011;14253;44.840;10.444;2022-10-16T08:35:02;10.43;;;7.05;;
26620;SDS011;14253;44.840;10.444;2022-10-16T08:37:31;11.13;;;7.28;;
26620;SDS011;14253;44.840;10.444;2022-10-16T08:39:58;14.73;;;7.78;;
26620;SDS011;14253;44.840;10.444;2022-10-16T08:42:40;13.75;;;7.28;;
26620;SDS011;14253;44.840;10.444;2022-10-16T08:45:49;13.52;;;7.22;;
26620;SDS011;14253;44.840;10.444;2022-10-16T08:48:49;13.25;;;7.40;;
26620;SDS011;14253;44.840;10.444;2022-10-16T08:51:21;9.52;;;6.22;;
26620;SDS011;14253;44.840;10.444;2022-10-16T08:54:01;9.73;;;7.30;;
26620;SDS011;14253;44.840;10.444;2022-10-16T08:56:29;13.73;;;8.02;;
26620;SDS011;14253;44.840;10.444;2022-10-16T08:58:57;13.85;;;7.85;;
26620;SDS011;14253;44.840;10.444;2022-10-16T09:01:24;9.32;;;7.25;;
26620;SDS011;14253;44.840;10.444;2022-10-16T09:12:46;13.65;;;7.10;;
26620;SDS011;14253;44.840;10.444;2022-10-16T09:15:39;10.25;;;7.68;;
26620;SDS011;14253;44.840;10.444;2022-10-16T09:19:20;11.40;;;7.40;;
26620;SDS011;14253;44.840;10.444;2022-10-16T09:21:39;11.50;;;7.93;;
26620;SDS011;14253;44.840;10.444;2022-10-16T09:24:17;13.77;;;8.02;;
26620;SDS011;14253;44.840;10.444;2022-10-16T09:26:49;11.18;;;8.00;;
26620;SDS011;14253;44.840;10.444;2022-10-16T09:29:15;15.27;;;8.77;;
26620;SDS011;14253;44.840;10.444;2022-10-16T09:31:45;16.02;;;9.00;;
26620;SDS011;14253;44.840;10.444;2022-10-16T09:34:24;13.63;;;7.95;;
26620;SDS011;14253;44.840;10.444;2022-10-16T09:36:58;11.48;;;8.35;;
26620;SDS011;14253;44.840;10.444;2022-10-16T09:39:28;15.68;;;8.63;;
26620;SDS011;14253;44.840;10.444;2022-10-16T09:41:54;12.77;;;7.88;;
26620;SDS011;14253;44.840;10.444;2022-10-16T09:44:25;16.13;;;8.20;;
26620;SDS011;14253;44.840;10.444;2022-10-16T09:49:55;13.52;;;8.23;;
26620;SDS011;14253;44.840;10.444;2022-10-16T09:52:28;13.00;;;8.60;;
26620;SDS011;14253;44.840;10.444;2022-10-16T09:54:55;17.40;;;9.25;;
26620;SDS011;14253;44.840;10.444;2022-10-16T09:57:25;14.77;;;8.35;;
26620;SDS011;14253;44.840;10.444;2022-10-16T09:59:55;11.75;;;8.27;;
26620;SDS011;14253;44.840;10.444;2022-10-16T10:04:54;11.52;;;8.55;;
26620;SDS011;14253;44.840;10.444;2022-10-16T10:07:42;13.07;;;8.80;;
26620;SDS011;14253;44.840;10.444;2022-10-16T10:10:25;12.18;;;7.72;;
26620;SDS011;14253;44.840;10.444;2022-10-16T10:12:53;17.75;;;8.38;;
26620;SDS011;14253;44.840;10.444;2022-10-16T10:15:21;14.23;;;7.95;;
26620;SDS011;14253;44.840;10.444;2022-10-16T10:17:53;13.93;;;8.38;;
26620;SDS011;14253;44.840;10.444;2022-10-16T10:22:54;22.90;;;9.88;;
26620;SDS011;14253;44.840;10.444;2022-10-16T10:33:31;17.83;;;9.50;;
26620;SDS011;14253;44.840;10.444;2022-10-16T10:36:16;14.88;;;8.40;;
26620;SDS011;14253;44.840;10.444;2022-10-16T10:42:30;17.75;;;9.45;;
26620;SDS011;14253;44.840;10.444;2022-10-16T11:04:26;17.83;;;9.50;;
26620;SDS011;14253;44.840;10.444;2022-10-16T11:07:25;22.13;;;12.07;;
26620;SDS011;14253;44.840;10.444;2022-10-16T11:09:57;28.63;;;14.35;;
26620;SDS011;14253;44.840;10.444;2022-10-16T11:12:49;16.67;;;11.68;;
26620;SDS011;14253;44.840;10.444;2022-10-16T11:15:21;22.80;;;13.15;;
26620;SDS011;14253;44.840;10.444;2022-10-16T11:18:08;22.90;;;13.05;;
26620;SDS011;14253;44.840;10.444;2022-10-16T11:20:43;19.55;;;12.05;;
26620;SDS011;14253;44.840;10.444;2022-10-16T11:23:25;17.50;;;12.95;;
26620;SDS011;14253;44.840;10.444;2022-10-16T11:25:53;20.10;;;13.75;;
26620;SDS011;14253;44.840;10.444;2022-10-16T11:29:07;19.23;;;12.23;;
26620;SDS011;14253;44.840;10.444;2022-10-16T11:33:50;17.02;;;10.73;;
26620;SDS011;14253;44.840;10.444;2022-10-16T11:38:51;21.27;;;12.70;;
26620;SDS011;14253;44.840;10.444;2022-10-16T11:41:29;18.55;;;12.57;;
26620;SDS011;14253;44.840;10.444;2022-10-16T11:46:28;18.73;;;11.88;;
26620;SDS011;14253;44.840;10.444;2022-10-16T11:49:03;21.98;;;13.30;;
26620;SDS011;14253;44.840;10.444;2022-10-16T11:51:39;16.35;;;11.10;;
26620;SDS011;14253;44.840;10.444;2022-10-16T11:54:49;15.50;;;11.13;;
26620;SDS011;14253;44.840;10.444;2022-10-16T11:57:18;15.20;;;11.27;;
26620;SDS011;14253;44.840;10.444;2022-10-16T12:03:12;19.40;;;12.45;;
26620;SDS011;14253;44.840;10.444;2022-10-16T12:08:59;18.38;;;12.13;;
26620;SDS011;14253;44.840;10.444;2022-10-16T12:14:17;16.83;;;10.52;;
26620;SDS011;14253;44.840;10.444;2022-10-16T12:19:59;20.80;;;12.15;;
26620;SDS011;14253;44.840;10.444;2022-10-16T12:22:54;15.98;;;12.63;;
26620;SDS011;14253;44.840;10.444;2022-10-16T12:28:36;17.23;;;11.40;;
26620;SDS011;14253;44.840;10.444;2022-10-16T12:33:28;16.50;;;10.55;;
26620;SDS011;14253;44.840;10.444;2022-10-16T12:35:58;19.48;;;10.98;;
26620;SDS011;14253;44.840;10.444;2022-10-16T12:41:02;13.00;;;10.13;;
26620;SDS011;14253;44.840;10.444;2022-10-16T12:48:39;15.82;;;11.70;;
26620;SDS011;14253;44.840;10.444;2022-10-16T12:51:33;14.52;;;10.70;;
26620;SDS011;14253;44.840;10.444;2022-10-16T12:54:03;16.02;;;10.88;;
26620;SDS011;14253;44.840;10.444;2022-10-16T13:05:09;16.20;;;8.82;;
26620;SDS011;14253;44.840;10.444;2022-10-16T13:18:22;10.70;;;7.03;;
26620;SDS011;14253;44.840;10.444;2022-10-16T13:24:00;11.23;;;7.60;;
26620;SDS011;14253;44.840;10.444;2022-10-16T13:29:54;11.98;;;8.30;;
26620;SDS011;14253;44.840;10.444;2022-10-16T13:32:27;13.73;;;9.10;;
26620;SDS011;14253;44.840;10.444;2022-10-16T13:34:54;16.35;;;10.50;;
26620;SDS011;14253;44.840;10.444;2022-10-16T13:37:21;16.30;;;10.77;;
26620;SDS011;14253;44.840;10.444;2022-10-16T13:39:50;16.00;;;10.45;;
26620;SDS011;14253;44.840;10.444;2022-10-16T13:42:26;17.15;;;10.13;;
26620;SDS011;14253;44.840;10.444;2022-10-16T13:44:54;18.70;;;10.60;;
26620;SDS011;14253;44.840;10.444;2022-10-16T13:47:22;19.75;;;10.93;;
26620;SDS011;14253;44.840;10.444;2022-10-16T13:50:01;16.67;;;9.93;;
26620;SDS011;14253;44.840;10.444;2022-10-16T13:52:30;12.23;;;9.40;;
26620;SDS011;14253;44.840;10.444;2022-10-16T13:54:56;14.77;;;9.77;;
26620;SDS011;14253;44.840;10.444;2022-10-16T13:57:23;14.77;;;9.38;;
26620;SDS011;14253;44.840;10.444;2022-10-16T13:59:50;14.23;;;8.98;;
26620;SDS011;14253;44.840;10.444;2022-10-16T14:02:31;15.52;;;9.80;;
26620;SDS011;14253;44.840;10.444;2022-10-16T14:05:00;11.75;;;9.00;;
26620;SDS011;14253;44.840;10.444;2022-10-16T14:07:32;13.38;;;9.27;;
26620;SDS011;14253;44.840;10.444;2022-10-16T14:10:00;12.77;;;8.35;;
26620;SDS011;14253;44.840;10.444;2022-10-16T14:12:29;9.18;;;6.20;;
26620;SDS011;14253;44.840;10.444;2022-10-16T14:14:55;12.32;;;8.40;;
26620;SDS011;14253;44.840;10.444;2022-10-16T14:17:25;10.98;;;7.18;;
26620;SDS011;14253;44.840;10.444;2022-10-16T14:20:00;15.18;;;7.90;;
26620;SDS011;14253;44.840;10.444;2022-10-16T14:22:34;12.13;;;6.40;;
26620;SDS011;14253;44.840;10.444;2022-10-16T14:30:48;11.10;;;7.30;;
26620;SDS011;14253;44.840;10.444;2022-10-16T14:33:22;13.63;;;7.50;;
26620;SDS011;14253;44.840;10.444;2022-10-16T14:36:13;10.70;;;7.10;;
26620;SDS011;14253;44.840;10.444;2022-10-16T14:41:21;11.52;;;6.35;;
26620;SDS011;14253;44.840;10.444;2022-10-16T14:43:55;9.98;;;7.55;;
26620;SDS011;14253;44.840;10.444;2022-10-16T14:46:33;13.52;;;7.97;;
26620;SDS011;14253;44.840;10.444;2022-10-16T14:51:39;12.43;;;7.40;;
26620;SDS011;14253;44.840;10.444;2022-10-16T14:56:35;12.15;;;8.35;;
26620;SDS011;14253;44.840;10.444;2022-10-16T15:01:56;15.57;;;6.33;;
26620;SDS011;14253;44.840;10.444;2022-10-16T15:04:22;13.23;;;8.27;;
26620;SDS011;14253;44.840;10.444;2022-10-16T15:06:48;9.60;;;6.28;;
26620;SDS011;14253;44.840;10.444;2022-10-16T15:09:14;9.90;;;6.22;;
26620;SDS011;14253;44.840;10.444;2022-10-16T15:11:41;10.93;;;7.22;;
26620;SDS011;14253;44.840;10.444;2022-10-16T15:14:10;8.98;;;6.93;;
26620;SDS011;14253;44.840;10.444;2022-10-16T15:16:38;13.07;;;7.43;;
26620;SDS011;14253;44.840;10.444;2022-10-16T15:19:03;11.10;;;7.05;;
26620;SDS011;14253;44.840;10.444;2022-10-16T15:21:30;12.30;;;6.47;;
26620;SDS011;14253;44.840;10.444;2022-10-16T15:23:57;12.60;;;6.93;;
26620;SDS011;14253;44.840;10.444;2022-10-16T15:26:25;10.98;;;6.65;;
26620;SDS011;14253;44.840;10.444;2022-10-16T15:28:52;11.93;;;7.40;;
26620;SDS011;14253;44.840;10.444;2022-10-16T15:31:19;14.80;;;8.55;;
26620;SDS011;14253;44.840;10.444;2022-10-16T15:33:48;15.57;;;9.40;;
26620;SDS011;14253;44.840;10.444;2022-10-16T15:36:27;12.80;;;8.27;;
26620;SDS011;14253;44.840;10.444;2022-10-16T15:38:54;13.77;;;9.32;;
26620;SDS011;14253;44.840;10.444;2022-10-16T15:41:21;14.00;;;8.23;;
26620;SDS011;14253;44.840;10.444;2022-10-16T15:43:48;18.25;;;9.23;;
26620;SDS011;14253;44.840;10.444;2022-10-16T15:46:15;11.90;;;7.55;;
26620;SDS011;14253;44.840;10.444;2022-10-16T15:48:44;14.55;;;9.32;;
26620;SDS011;14253;44.840;10.444;2022-10-16T15:51:10;15.98;;;9.10;;
26620;SDS011;14253;44.840;10.444;2022-10-16T15:53:35;15.00;;;8.50;;
26620;SDS011;14253;44.840;10.444;2022-10-16T15:56:02;12.85;;;7.72;;
26620;SDS011;14253;44.840;10.444;2022-10-16T15:58:29;18.42;;;9.45;;
26620;SDS011;14253;44.840;10.444;2022-10-16T16:00:58;20.02;;;12.65;;
26620;SDS011;14253;44.840;10.444;2022-10-16T16:03:29;22.65;;;14.68;;
26620;SDS011;14253;44.840;10.444;2022-10-16T16:05:56;21.13;;;13.63;;
26620;SDS011;14253;44.840;10.444;2022-10-16T16:08:22;21.05;;;13.43;;
26620;SDS011;14253;44.840;10.444;2022-10-16T16:10:58;20.67;;;14.48;;
26620;SDS011;14253;44.840;10.444;2022-10-16T16:13:25;19.10;;;14.18;;
26620;SDS011;14253;44.840;10.444;2022-10-16T16:15:51;21.60;;;15.02;;
26620;SDS011;14253;44.840;10.444;2022-10-16T16:18:17;25.55;;;16.23;;
26620;SDS011;14253;44.840;10.444;2022-10-16T16:20:43;24.08;;;15.77;;
26620;SDS011;14253;44.840;10.444;2022-10-16T16:23:09;22.45;;;16.08;;
26620;SDS011;14253;44.840;10.444;2022-10-16T16:25:35;26.48;;;16.00;;
26620;SDS011;14253;44.840;10.444;2022-10-16T16:28:01;26.38;;;17.08;;
26620;SDS011;14253;44.840;10.444;2022-10-16T16:30:27;26.52;;;18.42;;
26620;SDS011;14253;44.840;10.444;2022-10-16T16:32:53;22.58;;;16.48;;
26620;SDS011;14253;44.840;10.444;2022-10-16T16:35:19;32.42;;;19.13;;
26620;SDS011;14253;44.840;10.444;2022-10-16T16:37:46;30.45;;;20.23;;
26620;SDS011;14253;44.840;10.444;2022-10-16T16:40:12;31.08;;;20.95;;
26620;SDS011;14253;44.840;10.444;2022-10-16T16:42:38;30.10;;;20.27;;
26620;SDS011;14253;44.840;10.444;2022-10-16T16:45:05;32.97;;;20.88;;
26620;SDS011;14253;44.840;10.444;2022-10-16T16:47:31;36.00;;;21.55;;
26620;SDS011;14253;44.840;10.444;2022-10-16T16:49:57;36.58;;;22.60;;
26620;SDS011;14253;44.840;10.444;2022-10-16T16:52:24;35.60;;;22.63;;
26620;SDS011;14253;44.840;10.444;2022-10-16T16:54:50;38.72;;;23.23;;
26620;SDS011;14253;44.840;10.444;2022-10-16T16:57:19;35.10;;;23.73;;
26620;SDS011;14253;44.840;10.444;2022-10-16T16:59:46;34.08;;;23.38;;